METAR Data
IDs: Format: Raw Decoded Include TAF

Data at: 1950 UTC 21 Sep 2021

KPBF 211853Z AUTO 01008KT 10SM FEW044 24/21 A3004 RMK AO2 WSHFT 1740 LTG DSNT E-SW RAB1754E52 TSE43 SLP169 P0033 T02390206
KPBF 211849Z AUTO 36007KT 10SM -RA FEW050 SCT100 23/21 A3003 RMK AO2 WSHFT 1740 LTG DSNT E-SW RAB1754 TSE43 P0033
KPBF 211825Z AUTO 05003KT 4SM TSRA BKN038 BKN095 BKN110 23/20 A3004 RMK AO2 WSHFT 1740 LTG DSNT ALQDS RAB1754 P0033 T02330200
KPBF 211818Z AUTO 04004KT 2 1/2SM -TSRA FEW023 BKN033 OVC095 23/20 A3006 RMK AO2 WSHFT 1740 LTG DSNT ALQDS RAB1754 PRESFR P0031 T02330200
KPBF 211808Z AUTO VRB03KT 3/4SM +TSRA FEW022 BKN030 OVC035 23/21 A3007 RMK AO2 WSHFT 1740 LTG DSNT ALQDS RAB1754 P0025 T02330206
KPBF 211803Z AUTO 29007G25KT 1 3/4SM +TSRA FEW015 BKN024 OVC033 24/21 A3008 RMK AO2 WSHFT 1740 LTG DSNT ALQDS RAB1754 P0015 T02390206
KPBF 211800Z AUTO 29010G30KT 3SM +TSRA FEW015 BKN024 OVC032 24/21 A3009 RMK AO2 WSHFT 1740 LTG DSNT S-W RAB1754 P0010 T02440206
KPBF 211753Z AUTO 30018G35KT 9SM TS BKN024 OVC032 26/19 A3010 RMK AO2 PK WND 33035/1746 LTG DSNT SW-NW TSB40 PRESRR SLP189 T02560194 10294 20233 51016
KPBF 211751Z AUTO 31018G35KT 10SM TS BKN024 BKN030 OVC035 26/20 A3009 RMK AO2 PK WND 33035/1746 LTG DSNT SW-NW TSB40 PRESRR
KPBF 211741Z AUTO 03011KT 10SM TS SCT026 OVC032 28/21 A3006 RMK AO2 LTG DSNT W-N TSB40 T02830211
KPBF 211734Z AUTO 01011KT 10SM VCTS BKN026 BKN033 BKN060 29/22 A3006 RMK AO2 LTG DSNT W-N T02940217
KPBF 211653Z AUTO 03005KT 10SM SCT060 BKN085 29/21 A3005 RMK AO2 SLP174 T02890211
KPBF 211553Z AUTO 36005KT 10SM FEW060 29/22 A3005 RMK AO2 LTG DSNT E AND SE SLP172 T02890217
KPBF 211453Z AUTO 32004KT 10SM BKN055 BKN070 27/22 A3003 RMK AO2 SLP167 T02670222 51015
KPBF 211353Z AUTO VRB05KT 7SM CLR 25/22 A3002 RMK AO2 LTG DSNT E AND SE SLP161 T02500222
KPBF 211332Z AUTO 18003KT 4SM BR FEW060 24/22 A3002 RMK AO2 LTG DSNT E T02390217
KPBF 211306Z AUTO 00000KT 5SM VCTS BR FEW020 OVC055 24/22 A3001 RMK AO2 LTG DSNT NE AND E T02390217
KPBF 211253Z AUTO 00000KT 6SM BR FEW020 BKN048 OVC055 24/22 A3001 RMK AO2 LTG DSNT NE AND S SLP160 T02390217
KPBF 211153Z AUTO 00000KT 6SM BR SCT055 SCT085 23/21 A2999 RMK AO2 SLP152 60000 T02330211 10239 20217 53022
KPBF 211053Z AUTO 09003KT 6SM BR BKN060 OVC075 23/21 A2996 RMK AO2 SLP142 T02330211
KPBF 210953Z AUTO 00000KT 5SM BR FEW060 22/20 A2993 RMK AO2 SLP133 T02220200
KPBF 210853Z AUTO 13004KT 4SM BR CLR 22/20 A2992 RMK AO2 SLP129 60000 T02220200 58001
KPBF 210848Z AUTO 13004KT 3SM BR CLR 22/20 A2992 RMK AO2
KPBF 210834Z AUTO 13003KT 1 1/2SM BR CLR 22/21 A2993 RMK AO2 T02220206
KPBF 210753Z AUTO 12003KT 4SM BR CLR 22/20 A2994 RMK AO2 RAB05E07 SLP134 P0000 T02220200
KPBF 210653Z AUTO 00000KT 10SM CLR 23/20 A2993 RMK AO2 SLP133 T02280200
KPBF 210553Z AUTO 00000KT 10SM CLR 23/20 A2992 RMK AO2 SLP130 T02280200 10283 20222 403330194 50002
KPBF 210453Z AUTO 00000KT 10SM CLR 23/21 A2993 RMK AO2 SLP131 T02330206
KPBF 210353Z AUTO 00000KT 10SM CLR 24/21 A2993 RMK AO2 SLP133 T02440211
KPBF 210253Z AUTO 18004KT 10SM CLR 25/21 A2992 RMK AO2 SLP128 T02500211 53014
KPBF 210153Z AUTO 18004KT 10SM CLR 26/22 A2991 RMK AO2 SLP125 T02610217
KPBF 210053Z AUTO 15005KT 10SM CLR 27/21 A2989 RMK AO2 SLP117 T02670211
KPBF 202353Z AUTO 15005KT 10SM CLR 28/21 A2988 RMK AO2 SLP115 T02830211 10333 20283 55000
KPBF 202253Z AUTO 15007KT 10SM FEW050 32/21 A2987 RMK AO2 SLP111 T03170206
KPBF 202153Z AUTO 15005KT 10SM FEW049 SCT060 31/20 A2987 RMK AO2 SLP112 T03060200
KPBF 202053Z AUTO 16006KT 10SM CLR 32/20 A2988 RMK AO2 SLP115 T03220200 56019
KPBF 201953Z AUTO 16005KT 10SM FEW042 32/19 A2989 RMK AO2 SLP118 T03220194